Time;durP1;ratioP1;P1;durP2;ratioP2;P2;SDS_P1;SDS_P2;PMS_P1;PMS_P2;Temp;Humidity;BMP_temperature;BMP_pressure;BME280_temperature;BME280_humidity;BME280_pressure;Samples;Min_cycle;Max_cycle;Signal;HPM_P1;HPM_P2
2021/12/28 00:01:17;;;;;;;2.13;1.90;;;11.00;99.90;;;;;;5049173;28;20212;-67
2021/12/28 00:03:46;;;;;;;1.90;1.70;;;11.00;99.90;;;;;;5033097;28;20240;-67
2021/12/28 00:06:16;;;;;;;1.73;1.60;;;10.90;99.90;;;;;;5032283;28;20315;-66
2021/12/28 00:08:43;;;;;;;1.83;1.70;;;11.00;99.90;;;;;;5031779;28;20247;-66
2021/12/28 00:11:10;;;;;;;2.27;1.63;;;10.90;99.90;;;;;;5031664;28;20278;-66
2021/12/28 00:13:38;;;;;;;1.97;1.77;;;11.00;99.90;;;;;;5031866;28;20312;-68
2021/12/28 00:18:53;;;;;;;1.43;1.33;;;10.90;99.90;;;;;;5027971;28;20242;-65
2021/12/28 00:21:22;;;;;;;1.63;1.53;;;10.90;99.90;;;;;;5031860;28;20236;-67
2021/12/28 00:23:48;;;;;;;1.73;1.53;;;10.90;99.90;;;;;;5031609;28;20215;-66
2021/12/28 00:26:16;;;;;;;1.90;1.70;;;10.90;99.90;;;;;;5034972;28;20684;-67
2021/12/28 00:28:46;;;;;;;1.63;1.53;;;10.90;99.90;;;;;;5035353;28;20231;-65
2021/12/28 00:31:15;;;;;;;1.77;1.43;;;10.90;99.90;;;;;;5023761;28;20201;-67
2021/12/28 00:33:42;;;;;;;1.67;1.57;;;10.90;99.90;;;;;;5018459;28;20316;-66
2021/12/28 00:36:09;;;;;;;1.37;1.23;;;10.90;99.90;;;;;;5019415;28;20268;-66
2021/12/28 00:38:37;;;;;;;1.40;1.30;;;10.90;99.90;;;;;;5054854;22;20315;-62
2021/12/28 00:41:05;;;;;;;1.40;1.30;;;10.90;99.90;;;;;;5031799;28;20204;-62
2021/12/28 00:43:33;;;;;;;1.70;1.53;;;10.90;99.90;;;;;;5034886;28;20261;-62
2021/12/28 00:46:00;;;;;;;1.97;1.80;;;10.80;99.90;;;;;;5034538;28;20650;-62
2021/12/28 00:48:27;;;;;;;1.40;1.30;;;10.90;99.90;;;;;;5034359;28;20255;-63
2021/12/28 00:50:54;;;;;;;1.00;1.00;;;10.90;99.90;;;;;;5034159;28;20200;-62
2021/12/28 00:53:23;;;;;;;1.33;1.30;;;11.10;99.90;;;;;;5034612;28;20315;-64
2021/12/28 00:55:51;;;;;;;1.20;1.10;;;10.90;99.90;;;;;;5034203;28;20204;-63
2021/12/28 00:58:19;;;;;;;1.20;1.20;;;10.80;99.90;;;;;;5034030;28;20312;-63
2021/12/28 01:00:47;;;;;;;1.40;1.30;;;10.90;99.90;;;;;;5033982;28;20686;-63
2021/12/28 01:03:15;;;;;;;1.53;1.43;;;10.80;99.90;;;;;;5033723;28;20205;-64
2021/12/28 01:05:42;;;;;;;1.30;1.20;;;10.80;99.90;;;;;;5033977;28;20296;-64
2021/12/28 01:08:10;;;;;;;1.50;1.40;;;10.80;99.90;;;;;;5033878;28;20311;-64
2021/12/28 01:10:41;;;;;;;1.87;1.70;;;10.70;99.90;;;;;;5035127;28;20228;-62
2021/12/28 01:13:10;;;;;;;1.53;1.40;;;10.80;99.90;;;;;;5035702;28;20275;-64
2021/12/28 01:15:37;;;;;;;1.50;1.40;;;10.80;99.90;;;;;;5044949;28;20247;-62
2021/12/28 01:18:04;;;;;;;1.30;1.20;;;10.80;99.90;;;;;;5037393;28;20781;-63
2021/12/28 01:20:31;;;;;;;1.40;1.30;;;10.80;99.90;;;;;;5042563;28;20443;-63
2021/12/28 01:22:58;;;;;;;1.40;1.30;;;10.80;99.90;;;;;;5039362;28;20300;-63
2021/12/28 01:25:26;;;;;;;1.57;1.47;;;10.80;99.90;;;;;;5034152;28;20631;-62
2021/12/28 01:27:54;;;;;;;1.30;1.20;;;10.80;99.90;;;;;;5033856;28;20256;-62
2021/12/28 01:30:25;;;;;;;1.30;1.20;;;10.80;99.90;;;;;;5033567;28;20203;-64
2021/12/28 01:32:53;;;;;;;0.97;0.97;;;10.80;99.90;;;;;;5032909;28;20209;-64
2021/12/28 01:35:20;;;;;;;1.03;1.03;;;10.80;99.90;;;;;;5032152;28;20702;-62
2021/12/28 01:37:48;;;;;;;1.70;1.60;;;10.80;99.90;;;;;;5032649;28;20224;-62
2021/12/28 01:40:18;;;;;;;1.67;1.40;;;10.80;99.90;;;;;;5033173;28;20201;-62
2021/12/28 01:42:59;;;;;;;1.40;1.27;;;10.80;99.90;;;;;;5033250;28;20299;-64
2021/12/28 01:45:37;;;;;;;1.27;1.17;;;10.80;99.90;;;;;;5033597;28;20200;-64
2021/12/28 01:48:05;;;;;;;1.00;1.00;;;10.80;99.90;;;;;;5033581;28;20322;-64
2021/12/28 01:50:32;;;;;;;1.40;1.30;;;10.80;99.90;;;;;;5035410;28;20291;-63
2021/12/28 01:52:59;;;;;;;1.33;1.23;;;10.80;99.90;;;;;;5039140;28;20739;-63
2021/12/28 01:55:26;;;;;;;1.23;1.20;;;10.80;99.90;;;;;;5033582;28;20226;-63
2021/12/28 01:57:53;;;;;;;1.37;1.27;;;10.80;99.90;;;;;;5032916;28;20238;-63
2021/12/28 02:00:20;;;;;;;1.13;1.10;;;10.80;99.90;;;;;;5033426;28;20296;-63
2021/12/28 02:02:49;;;;;;;1.43;1.33;;;10.80;99.90;;;;;;5033414;28;20224;-63
2021/12/28 02:05:16;;;;;;;1.40;1.30;;;10.80;99.90;;;;;;5033582;28;20287;-63
2021/12/28 02:07:43;;;;;;;1.10;1.07;;;10.70;99.90;;;;;;5032370;28;20220;-63
2021/12/28 02:10:10;;;;;;;1.10;1.00;;;10.70;99.90;;;;;;5033234;28;20204;-62
2021/12/28 02:12:37;;;;;;;1.40;1.30;;;10.70;99.90;;;;;;5033127;28;20316;-63
2021/12/28 02:15:08;;;;;;;1.20;1.10;;;10.70;99.90;;;;;;5033109;28;20239;-64
2021/12/28 02:17:36;;;;;;;1.30;1.20;;;10.70;99.90;;;;;;5032094;28;20229;-62
2021/12/28 02:20:07;;;;;;;1.33;1.23;;;10.60;99.90;;;;;;5033191;28;20236;-63
2021/12/28 02:22:34;;;;;;;1.07;1.07;;;10.60;99.90;;;;;;5032713;28;20204;-62
2021/12/28 02:25:01;;;;;;;1.00;1.00;;;10.70;99.90;;;;;;5032590;28;20212;-64
2021/12/28 02:27:30;;;;;;;1.40;1.30;;;10.80;99.90;;;;;;5032455;28;20220;-63
2021/12/28 02:29:57;;;;;;;1.43;1.20;;;10.60;99.90;;;;;;5033010;28;20204;-63
2021/12/28 02:32:27;;;;;;;1.20;1.10;;;10.60;99.90;;;;;;5032601;28;20386;-63
2021/12/28 02:34:55;;;;;;;1.10;1.10;;;10.70;99.90;;;;;;5032635;28;20212;-62
2021/12/28 02:37:24;;;;;;;1.20;1.10;;;10.70;99.90;;;;;;5032069;28;20329;-62
2021/12/28 02:39:51;;;;;;;1.00;1.00;;;10.70;99.90;;;;;;5034264;28;20200;-64
2021/12/28 02:42:20;;;;;;;1.30;1.20;;;10.70;99.90;;;;;;5037299;28;20213;-63
2021/12/28 02:44:55;;;;;;;1.20;1.10;;;10.80;99.90;;;;;;5032048;28;20696;-64
2021/12/28 02:47:21;;;;;;;0.90;0.90;;;10.70;99.90;;;;;;5031288;28;20315;-64
2021/12/28 02:49:48;;;;;;;0.90;0.90;;;10.70;99.90;;;;;;5032360;28;20209;-63
2021/12/28 02:52:16;;;;;;;1.00;1.00;;;10.80;99.90;;;;;;5032198;28;20666;-63
2021/12/28 02:54:44;;;;;;;1.37;1.27;;;10.70;99.90;;;;;;5031404;28;20295;-64
2021/12/28 02:57:11;;;;;;;1.03;1.03;;;10.80;99.90;;;;;;5031874;28;20231;-62
2021/12/28 02:59:46;;;;;;;1.13;1.10;;;10.80;99.90;;;;;;5032230;28;20666;-64
2021/12/28 03:02:13;;;;;;;0.90;0.90;;;10.70;99.90;;;;;;5032599;28;20287;-64
2021/12/28 03:04:40;;;;;;;0.97;0.97;;;10.70;99.90;;;;;;5032154;28;20613;-63
2021/12/28 03:07:08;;;;;;;1.20;1.20;;;10.80;99.90;;;;;;5031871;28;20231;-63
2021/12/28 03:09:35;;;;;;;1.10;1.10;;;10.80;99.90;;;;;;5032032;28;20299;-65
2021/12/28 03:12:04;;;;;;;2.13;1.20;;;10.70;99.90;;;;;;5032263;28;20227;-64
2021/12/28 03:14:31;;;;;;;1.40;1.30;;;10.70;99.90;;;;;;5031954;28;20225;-64
2021/12/28 03:16:58;;;;;;;0.80;0.80;;;10.70;99.90;;;;;;5032071;28;20205;-63
2021/12/28 03:19:25;;;;;;;1.30;1.17;;;10.70;99.90;;;;;;5032362;28;20242;-63
2021/12/28 03:21:52;;;;;;;1.13;1.03;;;10.60;99.90;;;;;;5031314;28;20291;-62
2021/12/28 03:24:19;;;;;;;1.27;1.17;;;10.70;99.90;;;;;;5031933;28;20264;-63
2021/12/28 03:26:46;;;;;;;1.00;1.00;;;10.70;99.90;;;;;;5031369;28;20263;-63
2021/12/28 03:29:14;;;;;;;1.33;1.23;;;10.80;99.90;;;;;;5032102;28;20243;-63
2021/12/28 03:31:41;;;;;;;0.97;0.97;;;10.70;99.90;;;;;;5032222;28;20299;-63
2021/12/28 03:34:08;;;;;;;1.13;1.13;;;10.70;99.90;;;;;;5031899;28;20316;-63
2021/12/28 03:36:35;;;;;;;1.00;0.93;;;10.60;99.90;;;;;;5030296;28;20711;-63
2021/12/28 03:39:05;;;;;;;0.93;0.93;;;10.70;99.90;;;;;;5030138;28;20248;-64
2021/12/28 03:41:32;;;;;;;1.20;1.10;;;10.70;99.90;;;;;;5030299;28;20321;-64
2021/12/28 03:44:00;;;;;;;0.70;0.70;;;10.80;99.90;;;;;;5031765;28;20200;-63
2021/12/28 03:46:30;;;;;;;0.60;0.60;;;10.80;99.90;;;;;;5034347;28;20371;-63
2021/12/28 03:48:58;;;;;;;0.83;0.83;;;10.90;99.90;;;;;;5034334;28;20754;-63
2021/12/28 03:51:25;;;;;;;0.60;0.60;;;11.00;99.90;;;;;;5032821;28;20287;-64
2021/12/28 03:53:52;;;;;;;0.50;0.50;;;11.00;99.90;;;;;;5032063;28;20327;-64
2021/12/28 03:56:19;;;;;;;0.50;0.50;;;11.00;99.90;;;;;;5031058;28;20304;-63
2021/12/28 03:58:47;;;;;;;0.53;0.53;;;11.00;99.90;;;;;;5031121;28;20315;-64
2021/12/28 04:01:16;;;;;;;0.87;0.87;;;11.00;99.90;;;;;;5031222;28;20721;-62
2021/12/28 04:03:44;;;;;;;0.87;0.80;;;11.20;99.90;;;;;;5031371;28;20299;-64
2021/12/28 04:06:11;;;;;;;0.60;0.60;;;11.20;99.90;;;;;;5031246;28;20209;-64
2021/12/28 04:08:41;;;;;;;0.50;0.50;;;11.20;99.90;;;;;;5030624;28;20255;-64
2021/12/28 04:11:25;;;;;;;0.57;0.57;;;11.20;99.90;;;;;;5031489;28;20288;-64
2021/12/28 04:13:54;;;;;;;0.70;0.70;;;11.20;99.90;;;;;;5031188;28;20224;-64
2021/12/28 04:16:22;;;;;;;0.33;0.33;;;11.20;99.90;;;;;;5031145;28;20300;-63
2021/12/28 04:18:50;;;;;;;0.60;0.60;;;11.20;99.90;;;;;;5031734;28;20315;-64
2021/12/28 04:21:17;;;;;;;0.50;0.50;;;11.20;99.90;;;;;;5032031;28;20209;-64
2021/12/28 04:23:45;;;;;;;0.80;0.80;;;11.30;99.90;;;;;;5031545;28;20197;-63
2021/12/28 04:26:12;;;;;;;0.33;0.33;;;11.30;99.90;;;;;;5031509;28;20666;-63
2021/12/28 04:28:39;;;;;;;0.53;0.53;;;11.30;99.90;;;;;;5031258;28;20228;-65
2021/12/28 04:31:06;;;;;;;0.63;0.63;;;11.30;99.90;;;;;;5030756;28;21219;-63
2021/12/28 04:33:37;;;;;;;0.60;0.60;;;11.40;99.90;;;;;;5028386;28;20261;-64
2021/12/28 04:36:10;;;;;;;0.60;0.60;;;11.40;99.90;;;;;;5029724;28;20207;-64
2021/12/28 04:38:38;;;;;;;0.57;0.57;;;11.40;99.90;;;;;;5029723;28;20267;-63
2021/12/28 04:41:06;;;;;;;0.40;0.40;;;11.40;99.90;;;;;;5029654;28;20255;-63
2021/12/28 04:43:33;;;;;;;0.40;0.40;;;11.50;99.90;;;;;;5028107;28;20292;-62
2021/12/28 04:46:00;;;;;;;0.60;0.60;;;11.50;99.90;;;;;;5030444;28;20698;-63
2021/12/28 04:48:27;;;;;;;0.50;0.50;;;11.60;99.90;;;;;;5034775;28;20284;-64
2021/12/28 04:50:54;;;;;;;0.37;0.37;;;11.70;99.90;;;;;;5052769;28;20216;-64
2021/12/28 04:53:22;;;;;;;0.40;0.40;;;11.60;99.90;;;;;;5051976;28;20240;-64
2021/12/28 04:55:51;;;;;;;0.23;0.23;;;11.60;99.90;;;;;;5053069;28;20211;-64
2021/12/28 04:58:18;;;;;;;0.33;0.33;;;11.70;99.90;;;;;;5049237;28;20252;-64
2021/12/28 05:00:47;;;;;;;0.50;0.50;;;11.70;99.90;;;;;;5047669;28;20417;-64
2021/12/28 05:03:15;;;;;;;0.50;0.50;;;11.70;99.90;;;;;;5041827;28;20639;-63
2021/12/28 05:05:44;;;;;;;0.50;0.50;;;11.70;99.90;;;;;;5043379;28;20224;-64
2021/12/28 05:08:11;;;;;;;0.60;0.60;;;11.70;99.90;;;;;;5036009;28;20254;-62
2021/12/28 05:10:40;;;;;;;0.40;0.40;;;11.60;99.90;;;;;;5037206;28;20197;-64
2021/12/28 05:13:07;;;;;;;0.50;0.50;;;11.70;99.90;;;;;;5039566;28;20327;-63
2021/12/28 05:15:34;;;;;;;0.63;0.63;;;11.70;99.90;;;;;;5040514;28;20669;-63
2021/12/28 05:18:02;;;;;;;0.40;0.40;;;11.70;99.90;;;;;;5034369;28;20656;-64
2021/12/28 05:20:29;;;;;;;0.43;0.43;;;11.70;99.90;;;;;;5034519;28;20295;-62
2021/12/28 05:22:56;;;;;;;0.40;0.40;;;11.70;99.90;;;;;;5034089;28;20639;-63
2021/12/28 05:25:23;;;;;;;0.43;0.43;;;11.70;99.90;;;;;;5035063;28;20303;-63
2021/12/28 05:27:52;;;;;;;0.40;0.40;;;11.70;99.90;;;;;;5033417;28;20244;-67
2021/12/28 05:30:19;;;;;;;0.30;0.30;;;11.70;99.90;;;;;;5033792;28;20228;-64
2021/12/28 05:32:46;;;;;;;0.43;0.43;;;11.70;99.90;;;;;;5034720;28;20244;-63
2021/12/28 05:35:13;;;;;;;0.40;0.40;;;11.80;99.90;;;;;;5034493;28;20667;-64
2021/12/28 05:37:40;;;;;;;0.20;0.20;;;11.80;99.90;;;;;;5036330;28;20238;-64
2021/12/28 05:40:10;;;;;;;0.47;0.47;;;11.80;99.90;;;;;;5034117;28;20679;-63
2021/12/28 05:42:37;;;;;;;0.33;0.33;;;11.80;99.90;;;;;;5047926;28;20357;-64
2021/12/28 05:45:07;;;;;;;0.20;0.20;;;11.90;99.90;;;;;;5043289;28;20236;-64
2021/12/28 05:47:34;;;;;;;0.40;0.40;;;11.90;99.90;;;;;;5040088;28;20252;-63
2021/12/28 05:50:01;;;;;;;0.40;0.40;;;11.80;99.90;;;;;;5043001;28;20205;-63
2021/12/28 05:52:28;;;;;;;0.20;0.20;;;11.80;99.90;;;;;;5045389;28;20205;-65
2021/12/28 05:54:55;;;;;;;0.20;0.20;;;11.90;99.90;;;;;;5043086;28;20228;-63
2021/12/28 05:57:22;;;;;;;0.30;0.30;;;11.90;99.90;;;;;;5043674;28;20259;-64
2021/12/28 05:59:49;;;;;;;0.30;0.30;;;11.90;99.90;;;;;;5045259;28;20200;-63
2021/12/28 06:02:17;;;;;;;0.30;0.30;;;11.90;99.90;;;;;;5046635;28;20228;-63
2021/12/28 06:04:44;;;;;;;0.20;0.20;;;11.90;99.90;;;;;;5044758;28;20276;-63
2021/12/28 06:07:11;;;;;;;0.30;0.30;;;12.00;99.90;;;;;;5037858;28;20220;-63
2021/12/28 06:09:37;;;;;;;0.20;0.20;;;12.00;99.90;;;;;;5040817;28;20276;-64
2021/12/28 06:12:06;;;;;;;0.30;0.30;;;12.00;99.90;;;;;;5042211;28;20201;-63
2021/12/28 06:14:33;;;;;;;0.13;0.13;;;12.00;99.90;;;;;;5033454;28;20217;-64
2021/12/28 06:17:00;;;;;;;0.27;0.27;;;12.00;99.90;;;;;;5041170;28;20220;-63
2021/12/28 06:19:28;;;;;;;0.10;0.10;;;12.10;99.90;;;;;;5034710;28;20296;-64
2021/12/28 06:21:55;;;;;;;0.10;0.10;;;12.10;99.90;;;;;;5039265;28;20204;-64
2021/12/28 06:24:22;;;;;;;0.17;0.17;;;12.10;99.90;;;;;;5048039;28;20231;-65
2021/12/28 06:26:49;;;;;;;0.20;0.20;;;12.10;99.90;;;;;;5046002;28;20205;-64
2021/12/28 06:29:17;;;;;;;0.20;0.20;;;12.10;99.90;;;;;;5047297;28;20277;-63
2021/12/28 06:31:44;;;;;;;0.30;0.30;;;12.10;99.90;;;;;;5045311;28;20201;-62
2021/12/28 06:34:11;;;;;;;0.20;0.20;;;12.00;99.90;;;;;;5041827;28;20248;-64
2021/12/28 06:36:40;;;;;;;0.17;0.17;;;12.00;99.90;;;;;;5033512;28;20216;-63
2021/12/28 06:39:07;;;;;;;0.23;0.23;;;12.00;99.90;;;;;;5032435;28;20241;-62
2021/12/28 06:41:34;;;;;;;0.33;0.20;;;12.00;99.90;;;;;;5033880;28;20251;-64
2021/12/28 06:44:01;;;;;;;0.20;0.20;;;12.00;99.90;;;;;;5036142;28;20192;-64
2021/12/28 06:46:28;;;;;;;0.20;0.20;;;11.90;99.90;;;;;;5031938;28;20295;-64
2021/12/28 06:48:55;;;;;;;0.17;0.17;;;12.00;99.90;;;;;;5032861;28;20263;-62
2021/12/28 06:51:22;;;;;;;0.43;0.43;;;12.00;99.90;;;;;;5038561;28;20205;-63
2021/12/28 06:53:50;;;;;;;0.30;0.30;;;12.10;99.90;;;;;;5037161;28;20216;-63
2021/12/28 06:56:17;;;;;;;0.50;0.50;;;12.10;99.90;;;;;;5035861;28;20632;-63
2021/12/28 06:58:44;;;;;;;0.10;0.10;;;12.10;99.90;;;;;;5036438;28;20244;-62
2021/12/28 07:01:11;;;;;;;0.33;0.33;;;12.10;99.90;;;;;;5039875;28;20239;-63
2021/12/28 07:03:38;;;;;;;0.43;0.43;;;12.10;99.90;;;;;;5037029;28;20723;-63
2021/12/28 07:06:06;;;;;;;0.40;0.40;;;12.10;99.90;;;;;;5037551;28;20260;-62
2021/12/28 07:08:34;;;;;;;0.70;0.40;;;12.10;99.90;;;;;;5034468;28;20307;-64
2021/12/28 07:11:02;;;;;;;0.20;0.20;;;12.20;99.90;;;;;;5036275;28;20244;-63
2021/12/28 07:13:29;;;;;;;0.20;0.20;;;12.10;99.90;;;;;;5032642;28;20239;-64
2021/12/28 07:15:57;;;;;;;0.20;0.20;;;12.10;99.90;;;;;;5028977;28;20676;-63
2021/12/28 07:18:24;;;;;;;0.20;0.20;;;12.10;99.90;;;;;;5031068;28;20221;-63
2021/12/28 07:20:50;;;;;;;0.30;0.30;;;12.10;99.90;;;;;;5033615;28;20701;-65
2021/12/28 07:23:18;;;;;;;0.20;0.20;;;12.20;99.90;;;;;;5031107;28;20333;-64
2021/12/28 07:25:45;;;;;;;0.20;0.20;;;12.10;99.90;;;;;;5036819;28;20211;-64
2021/12/28 07:28:14;;;;;;;0.20;0.20;;;12.20;99.90;;;;;;5029699;28;20271;-62
2021/12/28 07:30:40;;;;;;;0.40;0.40;;;12.20;99.90;;;;;;5031442;28;20617;-64
2021/12/28 07:33:07;;;;;;;0.60;0.60;;;12.20;99.90;;;;;;5030478;28;20280;-64
2021/12/28 07:35:34;;;;;;;0.60;0.60;;;12.20;99.90;;;;;;5034445;28;20251;-63
2021/12/28 07:38:01;;;;;;;0.60;0.60;;;12.20;99.90;;;;;;5046352;28;20267;-64
2021/12/28 07:40:28;;;;;;;0.97;0.97;;;12.20;99.90;;;;;;5041121;28;20236;-63
2021/12/28 07:42:55;;;;;;;0.83;0.83;;;12.20;99.90;;;;;;5030826;28;20697;-63
2021/12/28 07:45:23;;;;;;;0.60;0.60;;;12.10;99.90;;;;;;5032067;28;20472;-65
2021/12/28 07:47:50;;;;;;;0.50;0.50;;;12.10;99.90;;;;;;5032685;28;20220;-63
2021/12/28 07:50:19;;;;;;;0.27;0.27;;;12.10;99.90;;;;;;5032018;28;20201;-63
2021/12/28 07:52:47;;;;;;;0.33;0.33;;;12.10;99.90;;;;;;5031129;28;20719;-65
2021/12/28 07:55:15;;;;;;;0.77;0.40;;;12.10;99.90;;;;;;5029316;28;20224;-65
2021/12/28 07:57:44;;;;;;;0.40;0.40;;;12.20;99.90;;;;;;5033374;28;20228;-63
2021/12/28 08:00:13;;;;;;;0.30;0.30;;;12.10;99.90;;;;;;5031916;28;20315;-65
2021/12/28 08:02:43;;;;;;;0.20;0.20;;;12.10;99.90;;;;;;5031921;28;20291;-65
2021/12/28 08:05:10;;;;;;;0.40;0.40;;;12.10;99.90;;;;;;5031284;28;20696;-65
2021/12/28 08:07:37;;;;;;;0.70;0.70;;;12.10;99.90;;;;;;5031526;28;20263;-64
2021/12/28 08:10:05;;;;;;;0.90;0.90;;;12.10;99.90;;;;;;5033361;28;20678;-65
2021/12/28 08:12:33;;;;;;;0.80;0.80;;;12.10;99.90;;;;;;5034261;28;20271;-63
2021/12/28 08:15:02;;;;;;;0.83;0.83;;;12.10;99.90;;;;;;5032775;28;20645;-63
2021/12/28 08:17:29;;;;;;;1.03;1.03;;;12.10;99.90;;;;;;5032727;28;20429;-64
2021/12/28 08:19:57;;;;;;;0.97;0.97;;;12.10;99.90;;;;;;5031672;28;20201;-64
2021/12/28 08:22:24;;;;;;;0.90;0.90;;;12.10;99.90;;;;;;5031116;28;20762;-64
2021/12/28 08:24:51;;;;;;;1.00;1.00;;;12.10;99.90;;;;;;5030951;28;20282;-65
2021/12/28 08:27:18;;;;;;;1.00;1.00;;;12.20;99.90;;;;;;5031640;28;20247;-64
2021/12/28 08:29:45;;;;;;;1.10;1.10;;;12.20;99.90;;;;;;5031366;28;20287;-64
2021/12/28 08:32:12;;;;;;;1.10;1.10;;;12.20;99.90;;;;;;5031486;28;20204;-64
2021/12/28 08:34:39;;;;;;;1.47;1.40;;;12.20;99.90;;;;;;5031072;28;20312;-63
2021/12/28 08:37:07;;;;;;;1.10;1.10;;;12.20;99.90;;;;;;5030937;28;20318;-62
2021/12/28 08:39:34;;;;;;;1.30;1.30;;;12.20;99.90;;;;;;5032017;28;20189;-63
2021/12/28 08:42:01;;;;;;;1.10;1.10;;;12.20;99.90;;;;;;5031936;28;20730;-64
2021/12/28 08:44:28;;;;;;;1.27;1.20;;;12.20;99.90;;;;;;5031647;28;20208;-63
2021/12/28 08:46:55;;;;;;;1.30;1.30;;;12.30;99.90;;;;;;5033896;28;20671;-64
2021/12/28 08:49:26;;;;;;;1.57;1.47;;;12.30;99.90;;;;;;5033612;28;20296;-63
2021/12/28 08:51:53;;;;;;;1.30;1.30;;;12.30;99.90;;;;;;5035552;28;20288;-66
2021/12/28 08:54:21;;;;;;;1.20;1.20;;;12.30;99.90;;;;;;5035661;28;20256;-62
2021/12/28 08:56:50;;;;;;;1.50;1.40;;;12.30;99.90;;;;;;5035499;28;20239;-63
2021/12/28 08:59:17;;;;;;;1.47;1.47;;;12.40;99.90;;;;;;5036628;28;20268;-63
2021/12/28 09:01:44;;;;;;;1.80;1.70;;;12.40;99.90;;;;;;5051557;28;20197;-63
2021/12/28 09:04:11;;;;;;;2.10;2.00;;;12.40;99.90;;;;;;5051073;28;20228;-63
2021/12/28 09:06:38;;;;;;;2.43;2.33;;;12.40;99.90;;;;;;5045355;28;20224;-62
2021/12/28 09:09:07;;;;;;;2.23;2.13;;;12.40;99.90;;;;;;5042098;28;20244;-62
2021/12/28 09:11:35;;;;;;;2.00;1.90;;;12.40;99.90;;;;;;5038850;28;20291;-65
2021/12/28 09:14:02;;;;;;;1.00;1.00;;;12.40;99.90;;;;;;5034744;28;20200;-63
2021/12/28 09:16:30;;;;;;;0.80;0.80;;;12.50;99.90;;;;;;5034311;28;20742;-62
2021/12/28 09:18:57;;;;;;;0.70;0.70;;;12.60;99.90;;;;;;5035285;28;20263;-65
2021/12/28 09:21:24;;;;;;;0.50;0.50;;;12.70;99.90;;;;;;5035073;28;20307;-62
2021/12/28 09:23:51;;;;;;;0.40;0.40;;;12.70;99.90;;;;;;5035846;28;20585;-63
2021/12/28 09:26:17;;;;;;;0.40;0.40;;;12.80;99.90;;;;;;5034763;28;20254;-62
2021/12/28 09:28:46;;;;;;;0.37;0.37;;;12.80;99.90;;;;;;5035299;28;20224;-63
2021/12/28 09:31:14;;;;;;;0.30;0.30;;;12.80;99.90;;;;;;5043318;28;20571;-65
2021/12/28 09:33:41;;;;;;;0.70;0.70;;;12.90;99.90;;;;;;5039789;28;20208;-63
2021/12/28 09:36:11;;;;;;;0.30;0.30;;;12.90;99.90;;;;;;5030321;28;20691;-64
2021/12/28 09:38:38;;;;;;;0.40;0.40;;;13.00;99.90;;;;;;5032329;28;20244;-64
2021/12/28 09:41:05;;;;;;;0.20;0.20;;;13.10;99.90;;;;;;5034639;28;20196;-64
2021/12/28 09:43:32;;;;;;;0.20;0.20;;;13.00;99.90;;;;;;5036871;28;20237;-63
2021/12/28 09:46:01;;;;;;;0.20;0.20;;;13.10;99.90;;;;;;5037203;28;20263;-62
2021/12/28 09:48:28;;;;;;;0.23;0.23;;;13.20;99.90;;;;;;5037183;28;20606;-63
2021/12/28 09:50:55;;;;;;;0.30;0.30;;;13.20;99.90;;;;;;5035979;28;20205;-63
2021/12/28 09:53:22;;;;;;;0.50;0.50;;;13.20;99.90;;;;;;5035037;28;20204;-63
2021/12/28 09:55:49;;;;;;;0.70;0.70;;;13.30;99.90;;;;;;5033531;28;20221;-63
2021/12/28 09:58:16;;;;;;;0.40;0.40;;;13.30;99.90;;;;;;5032386;28;20455;-63
2021/12/28 10:00:43;;;;;;;0.30;0.30;;;13.40;99.90;;;;;;5033008;28;20221;-64
2021/12/28 10:03:12;;;;;;;0.33;0.33;;;13.40;99.90;;;;;;5036405;28;20262;-64
2021/12/28 10:05:39;;;;;;;0.40;0.40;;;13.40;99.90;;;;;;5042325;28;20272;-63
2021/12/28 10:08:07;;;;;;;0.50;0.50;;;13.40;99.90;;;;;;5041814;28;20312;-63
2021/12/28 10:10:37;;;;;;;0.40;0.40;;;13.50;99.90;;;;;;5042396;28;20244;-64
2021/12/28 10:13:07;;;;;;;0.30;0.30;;;13.50;99.90;;;;;;5035341;28;20259;-63
2021/12/28 10:15:35;;;;;;;0.40;0.40;;;13.50;99.90;;;;;;5034468;28;20312;-65
2021/12/28 10:18:04;;;;;;;0.20;0.20;;;13.50;99.90;;;;;;5033854;28;20316;-64
2021/12/28 10:20:37;;;;;;;0.20;0.20;;;13.60;99.90;;;;;;5033887;28;20718;-63
2021/12/28 10:23:06;;;;;;;0.20;0.20;;;13.60;99.90;;;;;;5036183;28;20209;-62
2021/12/28 10:25:36;;;;;;;0.37;0.37;;;13.60;99.90;;;;;;5037735;28;20212;-62
2021/12/28 10:28:06;;;;;;;0.20;0.20;;;13.60;99.90;;;;;;5031558;28;20655;-63
2021/12/28 10:30:36;;;;;;;0.30;0.30;;;13.60;99.90;;;;;;5039053;28;20208;-64
2021/12/28 10:33:05;;;;;;;0.20;0.20;;;13.70;99.90;;;;;;5050475;28;20256;-63
2021/12/28 10:35:36;;;;;;;0.20;0.20;;;13.70;99.90;;;;;;5037279;28;20224;-63
2021/12/28 10:38:06;;;;;;;0.50;0.50;;;13.70;99.90;;;;;;5032521;28;20233;-63
2021/12/28 10:40:36;;;;;;;0.50;0.50;;;13.70;99.90;;;;;;5033785;28;20605;-64
2021/12/28 10:43:07;;;;;;;0.50;0.50;;;13.70;99.90;;;;;;5032154;28;20284;-65
2021/12/28 10:45:38;;;;;;;0.50;0.50;;;13.70;99.90;;;;;;5031747;28;20922;-62
2021/12/28 10:48:09;;;;;;;0.80;0.80;;;13.70;99.90;;;;;;5031583;28;20224;-62
2021/12/28 10:50:39;;;;;;;0.60;0.60;;;13.70;99.90;;;;;;5033382;28;20239;-64
2021/12/28 10:53:13;;;;;;;0.67;0.67;;;13.70;99.90;;;;;;5033052;28;20288;-63
2021/12/28 10:55:41;;;;;;;0.70;0.70;;;13.70;99.90;;;;;;5033661;28;20453;-63
2021/12/28 10:58:08;;;;;;;0.73;0.73;;;13.70;99.90;;;;;;5032305;28;20316;-64
2021/12/28 11:00:38;;;;;;;0.60;0.60;;;13.70;99.90;;;;;;5032949;28;20671;-63
2021/12/28 11:03:32;;;;;;;0.60;0.60;;;13.70;99.90;;;;;;5032832;28;20619;-63
2021/12/28 11:06:05;;;;;;;0.73;0.73;;;13.70;99.90;;;;;;5032537;28;20224;-65
2021/12/28 11:08:32;;;;;;;0.60;0.60;;;13.70;99.90;;;;;;5032391;28;20292;-64
2021/12/28 11:11:03;;;;;;;0.70;0.70;;;13.60;99.90;;;;;;5033779;28;20242;-63
2021/12/28 11:13:32;;;;;;;0.50;0.50;;;13.50;99.90;;;;;;5033005;28;20233;-63
2021/12/28 11:16:00;;;;;;;0.40;0.40;;;13.50;99.90;;;;;;5032724;28;20316;-63
2021/12/28 11:18:30;;;;;;;0.30;0.30;;;13.30;99.90;;;;;;5033044;28;20658;-63
2021/12/28 11:20:59;;;;;;;0.30;0.30;;;13.20;99.90;;;;;;5033208;28;20611;-63
2021/12/28 11:23:30;;;;;;;0.50;0.50;;;13.20;99.90;;;;;;5032932;28;20255;-63
2021/12/28 11:26:15;;;;;;;0.63;0.63;;;13.10;99.90;;;;;;5033116;28;20243;-62
2021/12/28 11:28:51;;;;;;;0.60;0.60;;;13.10;99.90;;;;;;5045627;28;20232;-63
2021/12/28 11:31:21;;;;;;;0.50;0.50;;;13.20;99.90;;;;;;5033987;28;20208;-64
2021/12/28 11:33:53;;;;;;;0.50;0.50;;;13.10;99.90;;;;;;5033718;28;20283;-63
2021/12/28 11:36:22;;;;;;;0.40;0.40;;;13.10;99.90;;;;;;5033195;28;20259;-62
2021/12/28 11:38:52;;;;;;;0.80;0.80;;;13.10;99.90;;;;;;5032809;28;20270;-64
2021/12/28 11:41:19;;;;;;;0.70;0.70;;;13.20;99.90;;;;;;5029274;28;20236;-63
2021/12/28 11:43:47;;;;;;;0.60;0.60;;;13.20;99.90;;;;;;5033535;28;20200;-63
2021/12/28 11:46:15;;;;;;;0.60;0.60;;;13.10;99.90;;;;;;5029943;28;20631;-63
2021/12/28 11:48:43;;;;;;;1.03;1.03;;;13.20;99.90;;;;;;5039128;28;20238;-63
2021/12/28 11:51:11;;;;;;;0.67;0.67;;;13.20;99.90;;;;;;5032047;28;20210;-64
2021/12/28 11:53:41;;;;;;;0.70;0.70;;;13.20;99.90;;;;;;5031766;28;20284;-63
2021/12/28 11:56:11;;;;;;;0.40;0.40;;;13.30;99.90;;;;;;5030376;28;20213;-63
2021/12/28 11:58:58;;;;;;;0.50;0.50;;;13.30;99.90;;;;;;5029489;28;20307;-64
2021/12/28 12:01:57;;;;;;;0.50;0.50;;;13.40;99.90;;;;;;5030192;28;20749;-62
2021/12/28 12:04:50;;;;;;;0.40;0.40;;;13.40;99.90;;;;;;4961891;28;20209;-62
2021/12/28 12:07:32;;;;;;;0.40;0.40;;;13.40;99.90;;;;;;5028633;28;20224;-62
2021/12/28 12:10:27;;;;;;;0.53;0.53;;;13.50;99.90;;;;;;5030081;28;20200;-63
2021/12/28 12:13:20;;;;;;;0.50;0.50;;;13.50;99.90;;;;;;5034564;28;20201;-61
2021/12/28 12:15:51;;;;;;;0.43;0.43;;;13.60;99.90;;;;;;5032634;28;20311;-63
2021/12/28 12:18:21;;;;;;;0.47;0.47;;;13.60;99.90;;;;;;5030806;28;20577;-62
2021/12/28 12:21:05;;;;;;;0.63;0.63;;;13.60;99.90;;;;;;5034863;28;20296;-63
2021/12/28 12:23:41;;;;;;;0.63;0.63;;;13.70;99.90;;;;;;5039081;28;20200;-62
2021/12/28 12:26:11;;;;;;;0.80;0.80;;;13.70;99.90;;;;;;5038413;28;20295;-63
2021/12/28 12:28:59;;;;;;;1.60;1.50;;;13.70;99.90;;;;;;5038092;28;20304;-63
2021/12/28 12:31:29;;;;;;;1.60;1.50;;;13.80;99.90;;;;;;5037769;28;20287;-63
2021/12/28 12:33:57;;;;;;;1.00;1.00;;;13.70;99.90;;;;;;5035211;28;20296;-63
2021/12/28 12:36:33;;;;;;;0.77;0.77;;;13.70;99.90;;;;;;5034465;28;20247;-62
2021/12/28 12:39:01;;;;;;;0.60;0.60;;;13.70;99.90;;;;;;5034994;28;20303;-63
2021/12/28 12:41:49;;;;;;;0.50;0.50;;;13.80;99.90;;;;;;5035332;28;20309;-63
2021/12/28 12:44:20;;;;;;;0.43;0.43;;;13.80;99.90;;;;;;5031945;28;20738;-61
2021/12/28 12:46:49;;;;;;;0.60;0.60;;;13.80;99.90;;;;;;5034127;28;20193;-62
2021/12/28 12:49:25;;;;;;;0.50;0.50;;;13.80;99.90;;;;;;5036249;28;20307;-63
2021/12/28 12:51:59;;;;;;;0.67;0.67;;;13.80;99.90;;;;;;5036819;28;20219;-63
2021/12/28 12:54:30;;;;;;;0.70;0.70;;;13.80;99.90;;;;;;5035181;28;20247;-64
2021/12/28 12:57:19;;;;;;;0.60;0.60;;;13.70;99.90;;;;;;5030896;28;20271;-64
2021/12/28 12:59:51;;;;;;;0.50;0.50;;;13.60;99.90;;;;;;5025895;28;20201;-62